Time;durP1;ratioP1;P1;durP2;ratioP2;P2;SDS_P1;SDS_P2;PMS_P1;PMS_P2;Temp;Humidity;BMP_temperature;BMP_pressure;BME280_temperature;BME280_humidity;BME280_pressure;Samples;Min_cycle;Max_cycle;Signal;HPM_P1;HPM_P2
2023/12/28 00:02:45;;;;;;;11.95;7.50;;;23.80;70.00;;;;;;6235765;28;81203;-67
2023/12/28 00:05:47;;;;;;;8.75;7.90;;;23.80;70.10;;;;;;6227514;28;82442;-66
2023/12/28 00:08:49;;;;;;;8.88;7.55;;;23.80;70.20;;;;;;6228797;28;82522;-66
2023/12/28 00:11:52;;;;;;;9.70;7.65;;;23.70;70.80;;;;;;6225975;28;82421;-66
2023/12/28 00:14:54;;;;;;;8.32;7.40;;;23.70;70.50;;;;;;6221038;28;82336;-67
2023/12/28 00:17:56;;;;;;;9.23;7.50;;;23.70;70.30;;;;;;6231760;28;82238;-66
2023/12/28 00:20:58;;;;;;;8.38;7.40;;;23.70;70.30;;;;;;6228828;28;82439;-67
2023/12/28 00:24:00;;;;;;;8.45;7.55;;;23.70;70.30;;;;;;6229995;28;82371;-67
2023/12/28 00:27:04;;;;;;;7.60;6.80;;;23.70;70.30;;;;;;6229215;28;82267;-66
2023/12/28 00:30:07;;;;;;;7.53;6.82;;;23.70;70.30;;;;;;6230550;28;81198;-66
2023/12/28 00:33:09;;;;;;;10.13;7.00;;;23.60;70.30;;;;;;6230184;28;82197;-65
2023/12/28 00:36:11;;;;;;;9.40;7.55;;;23.60;70.30;;;;;;6231107;28;82405;-65
2023/12/28 00:39:14;;;;;;;9.52;7.53;;;23.60;70.40;;;;;;6234077;28;82232;-65
2023/12/28 00:42:19;;;;;;;9.38;7.45;;;23.60;70.40;;;;;;6235112;28;82617;-65
2023/12/28 00:45:21;;;;;;;7.90;7.10;;;23.60;70.50;;;;;;6234013;28;82770;-66
2023/12/28 00:48:23;;;;;;;9.48;7.22;;;23.60;70.30;;;;;;6234241;28;81667;-65
2023/12/28 00:51:25;;;;;;;8.13;7.10;;;23.50;70.30;;;;;;6232351;28;81194;-65
2023/12/28 00:54:26;;;;;;;9.32;7.13;;;23.50;70.40;;;;;;6234482;28;82410;-65
2023/12/28 00:57:30;;;;;;;8.50;7.60;;;23.50;70.40;;;;;;6224478;28;84322;-65
2023/12/28 01:00:32;;;;;;;8.45;7.40;;;23.50;70.50;;;;;;6234106;28;83374;-65
2023/12/28 01:03:34;;;;;;;8.45;7.63;;;23.40;70.40;;;;;;6232550;28;83923;-66
2023/12/28 01:06:36;;;;;;;9.07;8.18;;;23.40;70.40;;;;;;6229762;28;84080;-66
2023/12/28 01:09:38;;;;;;;8.27;7.45;;;23.40;70.40;;;;;;6231123;28;85376;-66
2023/12/28 01:12:41;;;;;;;9.40;7.95;;;23.40;70.30;;;;;;6230629;28;84024;-66
2023/12/28 01:15:43;;;;;;;9.27;8.27;;;23.40;70.30;;;;;;6234482;28;82888;-66
2023/12/28 01:18:45;;;;;;;9.95;8.25;;;23.40;70.30;;;;;;6228216;28;83980;-65
2023/12/28 01:21:47;;;;;;;8.68;7.88;;;23.30;70.30;;;;;;6232961;28;84029;-65
2023/12/28 01:24:49;;;;;;;9.63;8.63;;;23.40;70.30;;;;;;6231926;28;84028;-65
2023/12/28 01:27:53;;;;;;;10.20;9.10;;;23.30;70.20;;;;;;6229617;28;84011;-66
2023/12/28 01:30:55;;;;;;;9.52;8.15;;;23.30;70.30;;;;;;6230646;28;83449;-65
2023/12/28 01:33:57;;;;;;;9.65;8.70;;;23.30;70.30;;;;;;6231205;28;84108;-65
2023/12/28 01:36:59;;;;;;;10.07;9.07;;;23.30;70.30;;;;;;6232329;28;84180;-65
2023/12/28 01:40:01;;;;;;;10.93;9.55;;;23.30;70.30;;;;;;6229782;28;85447;-65
2023/12/28 01:43:05;;;;;;;11.52;9.75;;;23.30;70.40;;;;;;6225762;28;83954;-65
2023/12/28 01:46:09;;;;;;;10.18;9.18;;;23.30;70.40;;;;;;6231886;28;83934;-65
2023/12/28 01:49:12;;;;;;;9.68;8.65;;;23.30;70.40;;;;;;6231772;28;84140;-66
2023/12/28 01:52:14;;;;;;;9.93;8.93;;;23.20;70.30;;;;;;6231213;28;84209;-65
2023/12/28 01:55:16;;;;;;;11.38;9.27;;;23.20;70.30;;;;;;6227789;28;84299;-65
2023/12/28 01:58:20;;;;;;;10.80;9.23;;;23.20;70.30;;;;;;6230955;28;84341;-65
2023/12/28 02:01:22;;;;;;;10.20;9.13;;;23.20;70.30;;;;;;6232853;28;83495;-65
2023/12/28 02:04:28;;;;;;;10.20;9.20;;;23.10;70.50;;;;;;6232140;28;83975;-65
2023/12/28 02:07:30;;;;;;;10.32;8.77;;;23.10;70.40;;;;;;6230119;28;84800;-65
2023/12/28 02:10:33;;;;;;;9.75;8.75;;;23.20;70.40;;;;;;6231223;28;83875;-65
2023/12/28 02:13:36;;;;;;;10.48;9.38;;;23.20;70.30;;;;;;6230217;28;84066;-66
2023/12/28 02:16:44;;;;;;;10.38;9.27;;;23.10;70.20;;;;;;6230149;28;84002;-65
2023/12/28 02:19:51;;;;;;;10.15;9.15;;;23.20;70.20;;;;;;6227903;28;83946;-65
2023/12/28 02:22:54;;;;;;;10.70;9.60;;;23.10;70.20;;;;;;6228637;28;83970;-65
2023/12/28 02:25:57;;;;;;;10.52;9.43;;;23.10;70.30;;;;;;6227861;28;84102;-65
2023/12/28 02:28:59;;;;;;;10.20;9.20;;;23.10;70.50;;;;;;6229612;28;83969;-65
2023/12/28 02:32:07;;;;;;;9.52;8.63;;;23.10;70.40;;;;;;6226575;28;82068;-65
2023/12/28 02:35:17;;;;;;;10.73;9.23;;;23.10;70.50;;;;;;6224023;28;84195;-66
2023/12/28 02:38:20;;;;;;;10.52;9.20;;;23.10;70.50;;;;;;6229375;28;84220;-65
2023/12/28 02:41:25;;;;;;;9.80;8.80;;;23.10;70.50;;;;;;6231237;28;84990;-66
2023/12/28 02:44:27;;;;;;;9.77;8.77;;;23.00;70.40;;;;;;6230918;28;84129;-65
2023/12/28 02:47:29;;;;;;;10.02;9.02;;;23.00;70.30;;;;;;6225272;28;83980;-65
2023/12/28 02:50:31;;;;;;;9.48;8.48;;;23.10;70.50;;;;;;6225557;28;84095;-65
2023/12/28 02:53:33;;;;;;;9.25;8.32;;;23.00;70.40;;;;;;6229304;28;84111;-65
2023/12/28 02:56:37;;;;;;;9.95;8.90;;;23.00;70.30;;;;;;6230628;28;82922;-64
2023/12/28 02:59:39;;;;;;;9.43;8.52;;;23.00;70.30;;;;;;6228205;28;84076;-64
2023/12/28 03:02:41;;;;;;;9.70;8.57;;;23.00;70.30;;;;;;6228356;28;84090;-65
2023/12/28 03:05:43;;;;;;;10.13;8.88;;;23.00;70.30;;;;;;6232023;28;83969;-63
2023/12/28 03:08:45;;;;;;;12.77;9.00;;;23.00;70.30;;;;;;6231328;28;84046;-64
2023/12/28 03:11:48;;;;;;;9.45;8.45;;;23.00;71.50;;;;;;6228555;28;83875;-64
2023/12/28 03:14:51;;;;;;;9.77;8.35;;;23.00;71.60;;;;;;6231557;28;82837;-63
2023/12/28 03:17:53;;;;;;;10.88;8.27;;;23.00;71.50;;;;;;6229837;28;83229;-63
2023/12/28 03:20:55;;;;;;;9.95;8.15;;;23.00;71.90;;;;;;6228729;28;83927;-64
2023/12/28 03:23:57;;;;;;;10.23;8.10;;;23.00;71.70;;;;;;6230908;28;84248;-62
2023/12/28 03:27:00;;;;;;;13.60;8.88;;;23.00;72.60;;;;;;6226367;28;84230;-63
2023/12/28 03:30:02;;;;;;;10.82;8.48;;;23.00;72.70;;;;;;6231115;28;82406;-65
2023/12/28 03:33:04;;;;;;;9.10;8.20;;;23.00;72.10;;;;;;6232386;28;82860;-63
2023/12/28 03:36:07;;;;;;;9.13;8.07;;;23.00;72.00;;;;;;6229704;28;83977;-64
2023/12/28 03:39:09;;;;;;;10.50;9.23;;;23.00;72.20;;;;;;6228765;28;84144;-64
2023/12/28 03:42:13;;;;;;;11.63;9.07;;;23.00;73.50;;;;;;6222082;28;83829;-64
2023/12/28 03:45:15;;;;;;;17.92;12.48;;;23.10;72.90;;;;;;6231167;28;84009;-63
2023/12/28 03:48:17;;;;;;;15.88;12.23;;;23.10;77.20;;;;;;6227870;28;84318;-64
2023/12/28 03:51:19;;;;;;;16.65;11.98;;;23.20;74.90;;;;;;6226096;28;84030;-65
2023/12/28 03:54:21;;;;;;;14.20;11.35;;;23.30;77.20;;;;;;6224531;28;84832;-66
2023/12/28 03:57:26;;;;;;;11.55;9.88;;;23.50;73.20;;;;;;6227436;28;83556;-65
2023/12/28 04:00:28;;;;;;;13.13;10.70;;;23.70;71.30;;;;;;6227651;28;84413;-65
2023/12/28 04:03:30;;;;;;;11.68;10.45;;;23.90;70.50;;;;;;6226595;28;83877;-64
2023/12/28 04:06:32;;;;;;;12.13;10.32;;;23.90;70.00;;;;;;6228832;28;84236;-65
2023/12/28 04:09:34;;;;;;;12.02;10.80;;;23.90;69.80;;;;;;6215308;28;84341;-65
2023/12/28 04:12:37;;;;;;;11.70;10.45;;;23.90;69.60;;;;;;6229123;28;85051;-64
2023/12/28 04:15:42;;;;;;;12.05;10.73;;;23.90;69.40;;;;;;6231863;28;84360;-65
2023/12/28 04:18:45;;;;;;;11.57;10.43;;;23.90;69.60;;;;;;6232377;28;83943;-66
2023/12/28 04:21:47;;;;;;;11.98;10.73;;;23.80;69.60;;;;;;6233233;28;82917;-66
2023/12/28 04:24:49;;;;;;;11.43;10.32;;;23.70;69.80;;;;;;6230097;28;84132;-65
2023/12/28 04:27:52;;;;;;;11.43;10.30;;;23.70;70.00;;;;;;6232190;28;83964;-65
2023/12/28 04:30:54;;;;;;;11.65;10.30;;;23.60;70.10;;;;;;6227840;28;82859;-65
2023/12/28 04:33:56;;;;;;;11.40;9.70;;;23.60;70.00;;;;;;6230457;28;83354;-64
2023/12/28 04:36:58;;;;;;;10.23;9.18;;;23.50;69.60;;;;;;6231671;28;82964;-64
2023/12/28 04:40:00;;;;;;;9.20;8.30;;;23.40;68.10;;;;;;6233517;28;84118;-65
2023/12/28 04:43:04;;;;;;;9.82;8.65;;;23.40;67.60;;;;;;6229439;28;85032;-65
2023/12/28 04:46:06;;;;;;;10.50;8.73;;;23.40;67.40;;;;;;6232716;28;83972;-64
2023/12/28 04:49:08;;;;;;;9.23;8.32;;;23.40;67.70;;;;;;6235755;28;84133;-65
2023/12/28 04:52:10;;;;;;;8.40;7.50;;;23.30;66.10;;;;;;6232809;28;84010;-64
2023/12/28 04:55:12;;;;;;;8.25;7.45;;;23.30;65.40;;;;;;6236166;28;83940;-64
2023/12/28 04:58:16;;;;;;;8.73;7.50;;;23.30;65.70;;;;;;6235244;28;82918;-65
2023/12/28 05:01:18;;;;;;;8.07;7.28;;;23.30;66.10;;;;;;6235631;28;82912;-64
2023/12/28 05:04:20;;;;;;;8.20;7.40;;;23.30;66.40;;;;;;6235440;28;83237;-64
2023/12/28 05:07:22;;;;;;;7.68;6.97;;;23.30;66.60;;;;;;6234548;28;83979;-65
2023/12/28 05:10:24;;;;;;;7.60;6.90;;;23.40;66.90;;;;;;6230892;28;84017;-64
2023/12/28 05:13:27;;;;;;;7.97;7.13;;;23.40;66.90;;;;;;6233842;28;84921;-64
2023/12/28 05:16:29;;;;;;;7.80;7.00;;;23.40;67.00;;;;;;6235821;28;84317;-65
2023/12/28 05:19:31;;;;;;;7.90;6.95;;;23.40;67.10;;;;;;6235625;28;84160;-64
2023/12/28 05:22:33;;;;;;;7.72;6.93;;;23.40;67.20;;;;;;6234957;28;84022;-65
2023/12/28 05:25:35;;;;;;;7.13;6.45;;;23.40;67.20;;;;;;6234535;28;84058;-64
2023/12/28 05:28:39;;;;;;;7.18;6.47;;;23.40;67.20;;;;;;6235591;28;82903;-65
2023/12/28 05:31:41;;;;;;;6.50;5.90;;;23.50;67.30;;;;;;6234351;28;83224;-65
2023/12/28 05:34:43;;;;;;;6.88;6.20;;;23.50;67.40;;;;;;6235283;28;84315;-65
2023/12/28 05:37:45;;;;;;;7.97;6.78;;;23.50;67.30;;;;;;6235395;28;84103;-65
2023/12/28 05:40:47;;;;;;;8.48;6.85;;;23.50;67.40;;;;;;6234651;28;81997;-65
2023/12/28 05:43:50;;;;;;;6.72;6.03;;;23.50;67.40;;;;;;6236011;28;85233;-65
2023/12/28 05:46:52;;;;;;;6.88;6.20;;;23.50;67.50;;;;;;6234362;28;83970;-65
2023/12/28 05:49:54;;;;;;;7.05;6.45;;;23.50;67.40;;;;;;6234787;28;84533;-65
2023/12/28 05:52:56;;;;;;;7.18;6.47;;;23.50;67.40;;;;;;6234216;28;84077;-65
2023/12/28 05:56:03;;;;;;;7.28;6.57;;;23.50;67.50;;;;;;6235215;28;84665;-65
2023/12/28 05:59:06;;;;;;;6.88;6.18;;;23.50;67.50;;;;;;6234247;28;82912;-65
2023/12/28 06:02:08;;;;;;;7.30;6.53;;;23.50;67.60;;;;;;6233830;28;82895;-64
2023/12/28 06:05:10;;;;;;;7.20;6.50;;;23.40;67.50;;;;;;6236400;28;83274;-65
2023/12/28 06:08:13;;;;;;;7.07;6.38;;;23.40;67.60;;;;;;6235960;28;83975;-64
2023/12/28 06:11:15;;;;;;;6.50;5.90;;;23.40;67.60;;;;;;6233368;28;84059;-65
2023/12/28 06:14:18;;;;;;;7.25;6.55;;;23.40;67.70;;;;;;6232455;28;84927;-65
2023/12/28 06:17:20;;;;;;;7.78;6.97;;;23.40;67.70;;;;;;6233916;28;84003;-64
2023/12/28 06:20:22;;;;;;;7.80;7.00;;;23.40;67.70;;;;;;6233361;28;83995;-65
2023/12/28 06:23:26;;;;;;;7.53;6.80;;;23.40;67.70;;;;;;6236080;28;83103;-65
2023/12/28 06:26:27;;;;;;;7.00;6.40;;;23.40;67.70;;;;;;6232257;28;83209;-65
2023/12/28 06:29:31;;;;;;;6.70;6.10;;;23.40;67.70;;;;;;6233883;28;84106;-65
2023/12/28 06:32:33;;;;;;;7.57;6.88;;;23.40;67.70;;;;;;6232347;28;84038;-65
2023/12/28 06:35:35;;;;;;;7.32;6.63;;;23.40;67.70;;;;;;6234203;28;83259;-65
2023/12/28 06:38:37;;;;;;;7.30;6.60;;;23.40;68.00;;;;;;6231088;28;84286;-64
2023/12/28 06:41:39;;;;;;;8.13;7.32;;;23.40;68.10;;;;;;6230963;28;83964;-65
2023/12/28 06:44:43;;;;;;;7.65;6.85;;;23.50;68.10;;;;;;6229892;28;84301;-65
2023/12/28 06:47:45;;;;;;;7.70;7.00;;;23.50;68.00;;;;;;6232385;28;83961;-65
2023/12/28 06:50:47;;;;;;;7.53;6.82;;;23.60;68.10;;;;;;6230916;28;85703;-65
2023/12/28 06:53:49;;;;;;;7.80;6.82;;;23.50;68.00;;;;;;6229686;28;84241;-65
2023/12/28 06:56:51;;;;;;;7.90;7.10;;;23.60;68.10;;;;;;6231199;28;82883;-65
2023/12/28 06:59:55;;;;;;;7.70;7.00;;;23.60;68.00;;;;;;6230591;28;82965;-65
2023/12/28 07:02:57;;;;;;;8.02;7.22;;;23.60;68.00;;;;;;6230521;28;84223;-65
2023/12/28 07:05:59;;;;;;;9.23;7.55;;;23.60;67.90;;;;;;6230503;28;82598;-65
2023/12/28 07:09:02;;;;;;;8.23;7.43;;;23.60;68.00;;;;;;6233530;28;82881;-64
2023/12/28 07:12:04;;;;;;;8.23;7.47;;;23.60;68.10;;;;;;6223738;28;84260;-65
2023/12/28 07:15:10;;;;;;;8.30;7.60;;;23.70;68.10;;;;;;6230679;28;84897;-65
2023/12/28 07:18:12;;;;;;;8.32;7.53;;;23.70;68.10;;;;;;6233923;28;84061;-65
2023/12/28 07:21:14;;;;;;;8.45;7.65;;;23.70;68.10;;;;;;6233282;28;84169;-65
2023/12/28 07:24:16;;;;;;;7.80;6.97;;;23.70;68.10;;;;;;6233250;28;84236;-65
2023/12/28 07:27:18;;;;;;;8.85;7.60;;;23.70;68.10;;;;;;6233165;28;84416;-65
2023/12/28 07:30:21;;;;;;;9.20;8.15;;;23.70;68.10;;;;;;6231858;28;83158;-65
2023/12/28 07:33:23;;;;;;;8.02;7.25;;;23.70;68.10;;;;;;6232608;28;84015;-65
2023/12/28 07:36:25;;;;;;;8.63;7.72;;;23.70;68.10;;;;;;6233364;28;83319;-65
2023/12/28 07:39:27;;;;;;;8.02;7.32;;;23.70;68.10;;;;;;6233398;28;84120;-65
2023/12/28 07:42:29;;;;;;;8.50;7.65;;;23.70;68.00;;;;;;6232996;28;83967;-65
2023/12/28 07:45:32;;;;;;;7.55;6.85;;;23.70;68.00;;;;;;6232041;28;85586;-65
2023/12/28 07:48:34;;;;;;;8.15;7.35;;;23.70;68.00;;;;;;6232183;28;83003;-65
2023/12/28 07:51:36;;;;;;;7.88;7.10;;;23.80;68.00;;;;;;6231425;28;84039;-65
2023/12/28 07:54:39;;;;;;;8.07;7.38;;;23.70;67.90;;;;;;6232736;28;83946;-65
2023/12/28 07:57:41;;;;;;;8.40;7.60;;;23.70;67.90;;;;;;6231268;28;84302;-65
2023/12/28 08:00:44;;;;;;;8.15;7.35;;;23.80;68.00;;;;;;6223021;28;83924;-65
2023/12/28 08:03:46;;;;;;;8.20;7.40;;;23.80;67.90;;;;;;6225149;28;84077;-65
2023/12/28 08:06:48;;;;;;;8.07;7.38;;;23.80;67.90;;;;;;6234309;28;83302;-65
2023/12/28 08:09:50;;;;;;;8.50;7.70;;;23.80;67.90;;;;;;6233228;28;82900;-64
2023/12/28 08:12:52;;;;;;;7.68;6.97;;;23.80;67.90;;;;;;6232449;28;84067;-65
2023/12/28 08:15:55;;;;;;;7.55;6.85;;;23.80;67.90;;;;;;6231201;28;83868;-65
2023/12/28 08:18:57;;;;;;;7.55;6.85;;;23.90;67.90;;;;;;6232789;28;83907;-65
2023/12/28 08:21:59;;;;;;;8.00;7.30;;;23.90;67.90;;;;;;6232052;28;84081;-65
2023/12/28 08:25:01;;;;;;;7.97;7.20;;;23.90;67.90;;;;;;6231077;28;83971;-65
2023/12/28 08:28:03;;;;;;;7.78;7.07;;;23.90;67.90;;;;;;6232042;28;84000;-65
2023/12/28 08:31:08;;;;;;;7.30;6.60;;;23.90;67.90;;;;;;6232675;28;84010;-65
2023/12/28 08:34:10;;;;;;;7.43;6.72;;;24.00;68.90;;;;;;6232666;28;83085;-65
2023/12/28 08:37:12;;;;;;;7.18;6.47;;;24.00;68.00;;;;;;6232590;28;83716;-65
2023/12/28 08:40:15;;;;;;;7.55;6.80;;;24.00;68.10;;;;;;6231542;28;84041;-65
2023/12/28 08:43:17;;;;;;;7.63;6.90;;;24.00;68.00;;;;;;6231601;28;84264;-65
2023/12/28 08:46:20;;;;;;;7.00;6.30;;;23.90;68.00;;;;;;6232260;28;83658;-65
2023/12/28 08:49:23;;;;;;;7.60;6.90;;;24.00;68.10;;;;;;6230383;28;84122;-65
2023/12/28 08:52:24;;;;;;;7.47;6.78;;;24.00;68.10;;;;;;6230768;28;83952;-65
2023/12/28 08:55:26;;;;;;;7.63;6.93;;;24.00;68.10;;;;;;6231390;28;83031;-65
2023/12/28 08:58:28;;;;;;;7.28;6.43;;;24.00;68.10;;;;;;6227984;28;84134;-65
2023/12/28 09:01:32;;;;;;;6.90;6.30;;;24.00;68.20;;;;;;6237847;28;84034;-65
2023/12/28 09:04:34;;;;;;;7.40;6.70;;;24.00;68.20;;;;;;6235592;28;83984;-65
2023/12/28 09:07:42;;;;;;;7.15;6.45;;;24.10;68.30;;;;;;6232459;28;83301;-64
2023/12/28 09:10:44;;;;;;;6.78;6.18;;;24.10;68.30;;;;;;6236540;28;82907;-64
2023/12/28 09:13:46;;;;;;;7.78;6.03;;;24.10;68.40;;;;;;6236714;28;82902;-64
2023/12/28 09:16:50;;;;;;;6.53;5.93;;;24.10;68.40;;;;;;6234684;28;84895;-64
2023/12/28 09:19:52;;;;;;;6.53;5.93;;;24.10;68.40;;;;;;6235438;28;83735;-64
2023/12/28 09:22:56;;;;;;;6.57;5.97;;;24.10;68.40;;;;;;6233110;28;84150;-65
2023/12/28 09:25:58;;;;;;;7.13;6.43;;;24.10;68.40;;;;;;6234420;28;82849;-64
2023/12/28 09:29:00;;;;;;;6.90;6.25;;;24.10;68.50;;;;;;6231958;28;84068;-65
2023/12/28 09:32:04;;;;;;;6.72;6.13;;;24.20;68.60;;;;;;6235503;28;84033;-64
2023/12/28 09:35:06;;;;;;;6.53;5.93;;;24.20;68.60;;;;;;6235293;28;82908;-65
2023/12/28 09:38:08;;;;;;;6.35;5.75;;;24.20;68.60;;;;;;6235773;28;82152;-65
2023/12/28 09:41:14;;;;;;;6.43;5.82;;;24.20;68.60;;;;;;6234623;28;82902;-64
2023/12/28 09:44:18;;;;;;;6.13;5.53;;;24.20;68.70;;;;;;6234512;28;84009;-64
2023/12/28 09:47:22;;;;;;;6.53;5.93;;;24.20;68.70;;;;;;6228334;28;85102;-65
2023/12/28 09:50:26;;;;;;;6.38;5.78;;;24.20;68.70;;;;;;6234849;28;84076;-65
2023/12/28 09:53:29;;;;;;;6.35;5.72;;;24.20;68.70;;;;;;6234812;28;83919;-64
2023/12/28 09:56:32;;;;;;;6.22;5.63;;;24.30;68.80;;;;;;6235800;28;82704;-65
2023/12/28 09:59:34;;;;;;;6.15;5.55;;;24.30;68.80;;;;;;6235887;28;84078;-64
2023/12/28 10:02:38;;;;;;;6.20;5.60;;;24.30;68.80;;;;;;6235901;28;82999;-65
2023/12/28 10:05:42;;;;;;;5.97;5.47;;;24.20;68.80;;;;;;6234359;28;84097;-65
2023/12/28 10:08:47;;;;;;;5.97;5.38;;;24.30;68.90;;;;;;6229760;28;83241;-65
2023/12/28 10:11:50;;;;;;;6.07;5.47;;;24.30;68.90;;;;;;6234813;28;83885;-65
2023/12/28 10:14:52;;;;;;;5.68;5.18;;;24.30;68.90;;;;;;6236012;28;83975;-65
2023/12/28 10:17:55;;;;;;;5.82;5.32;;;24.30;68.90;;;;;;6233569;28;84951;-64
2023/12/28 10:20:57;;;;;;;5.38;4.88;;;24.30;68.90;;;;;;6232702;28;84069;-64
2023/12/28 10:23:59;;;;;;;6.15;5.55;;;24.30;68.90;;;;;;6233847;28;83975;-65
2023/12/28 10:27:01;;;;;;;6.30;5.70;;;24.30;68.90;;;;;;6233557;28;84102;-65
2023/12/28 10:30:04;;;;;;;5.80;5.30;;;24.40;69.00;;;;;;6233521;28;83273;-65
2023/12/28 10:33:07;;;;;;;5.57;5.07;;;24.30;68.90;;;;;;6232504;28;84325;-65
2023/12/28 10:36:10;;;;;;;5.35;4.95;;;24.30;68.90;;;;;;6232931;28;84037;-64
2023/12/28 10:39:15;;;;;;;5.63;5.13;;;24.40;69.10;;;;;;6234673;28;81856;-64
2023/12/28 10:42:31;;;;;;;5.55;5.05;;;24.40;69.10;;;;;;6233044;28;84084;-65
2023/12/28 10:45:34;;;;;;;5.40;4.90;;;24.40;69.10;;;;;;6234245;28;84100;-65
2023/12/28 10:48:42;;;;;;;5.93;4.97;;;24.40;69.10;;;;;;6234076;28;84946;-65
2023/12/28 10:51:45;;;;;;;5.30;4.80;;;24.40;69.10;;;;;;6233285;28;83927;-65
2023/12/28 10:54:56;;;;;;;6.63;5.53;;;24.50;69.20;;;;;;6233029;28;84211;-65
2023/12/28 10:58:06;;;;;;;5.30;4.80;;;24.50;69.20;;;;;;6234659;28;84317;-64
2023/12/28 11:01:10;;;;;;;5.38;4.88;;;24.40;69.10;;;;;;6233426;28;84058;-65
2023/12/28 11:04:24;;;;;;;5.57;5.03;;;24.50;69.30;;;;;;6233461;28;83898;-64
2023/12/28 11:07:32;;;;;;;5.13;4.63;;;24.50;69.30;;;;;;6232647;28;84062;-64
2023/12/28 11:10:36;;;;;;;5.25;4.75;;;24.50;69.20;;;;;;6228346;28;83043;-65
2023/12/28 11:13:39;;;;;;;5.72;5.13;;;24.40;69.10;;;;;;6233550;28;83997;-65
2023/12/28 11:16:43;;;;;;;5.40;4.90;;;24.50;69.30;;;;;;6231225;28;84393;-65
2023/12/28 11:19:48;;;;;;;4.93;4.53;;;24.50;69.20;;;;;;6231986;28;83849;-64
2023/12/28 11:22:51;;;;;;;5.00;4.57;;;24.50;69.20;;;;;;6231710;28;83931;-65
2023/12/28 11:25:53;;;;;;;4.85;4.45;;;24.50;69.30;;;;;;6232654;28;83163;-65
2023/12/28 11:29:02;;;;;;;5.10;4.63;;;24.50;69.30;;;;;;6232901;28;84185;-64
2023/12/28 11:32:05;;;;;;;5.28;4.78;;;24.50;69.30;;;;;;6231972;28;83995;-64
2023/12/28 11:35:10;;;;;;;5.10;4.60;;;24.40;69.30;;;;;;6231966;28;84024;-65
2023/12/28 11:38:16;;;;;;;4.93;4.45;;;24.50;69.40;;;;;;6232585;28;84496;-64
2023/12/28 11:41:20;;;;;;;4.85;4.45;;;24.50;69.40;;;;;;6233568;28;83076;-65
2023/12/28 11:44:27;;;;;;;4.90;4.47;;;24.50;69.40;;;;;;6231894;28;84120;-65
2023/12/28 11:47:29;;;;;;;4.57;4.18;;;24.50;69.40;;;;;;6231065;28;83985;-65
2023/12/28 11:50:32;;;;;;;5.10;4.60;;;24.50;69.40;;;;;;6231220;28;84887;-65
2023/12/28 11:53:35;;;;;;;4.60;4.20;;;24.40;69.40;;;;;;6231812;28;85055;-64
2023/12/28 11:56:37;;;;;;;5.00;4.53;;;24.50;69.40;;;;;;6233106;28;83031;-65
2023/12/28 11:59:39;;;;;;;4.53;4.13;;;24.50;69.40;;;;;;6229537;28;82925;-64
2023/12/28 12:02:45;;;;;;;4.55;4.15;;;24.50;69.50;;;;;;6233675;28;84060;-65
2023/12/28 12:05:48;;;;;;;4.45;4.05;;;24.50;69.50;;;;;;6232382;28;85991;-65
2023/12/28 12:08:51;;;;;;;4.80;4.30;;;24.50;69.50;;;;;;6232368;28;84030;-65
2023/12/28 12:11:53;;;;;;;4.20;3.80;;;24.50;69.60;;;;;;6224899;28;82478;-65
2023/12/28 12:14:56;;;;;;;4.43;4.03;;;24.50;69.60;;;;;;6232688;28;84135;-65
2023/12/28 12:17:58;;;;;;;4.40;4.00;;;24.40;69.60;;;;;;6231837;28;83002;-64
2023/12/28 12:21:02;;;;;;;4.80;4.38;;;24.50;69.60;;;;;;6231546;28;85019;-65
2023/12/28 12:24:05;;;;;;;4.40;4.00;;;24.50;69.60;;;;;;6228541;28;82048;-65
2023/12/28 12:27:07;;;;;;;4.35;3.95;;;24.50;69.60;;;;;;6232546;28;83801;-64
2023/12/28 12:30:09;;;;;;;4.35;3.95;;;24.50;69.60;;;;;;6232169;28;83905;-65
2023/12/28 12:33:11;;;;;;;4.22;3.83;;;24.50;69.60;;;;;;6232995;28;83981;-64
2023/12/28 12:36:15;;;;;;;4.28;3.88;;;24.50;69.60;;;;;;6235082;28;84196;-65
2023/12/28 12:39:17;;;;;;;4.13;3.72;;;24.50;69.60;;;;;;6237337;28;83974;-65
2023/12/28 12:42:20;;;;;;;4.05;3.75;;;24.50;69.60;;;;;;6236522;28;83217;-65
2023/12/28 12:45:23;;;;;;;4.40;4.00;;;24.50;69.60;;;;;;6233673;28;82964;-64
2023/12/28 12:48:25;;;;;;;4.43;4.03;;;24.50;69.60;;;;;;6236888;28;83092;-65
2023/12/28 12:51:29;;;;;;;4.15;3.75;;;24.50;69.60;;;;;;6235808;28;83481;-65
2023/12/28 12:54:31;;;;;;;4.43;4.03;;;24.50;69.60;;;;;;6234684;28;84133;-65
2023/12/28 12:57:33;;;;;;;4.15;3.75;;;24.50;69.60;;;;;;6235504;28;83989;-64
2023/12/28 13:00:35;;;;;;;4.30;3.90;;;24.50;69.70;;;;;;6228707;28;84258;-64
2023/12/28 13:03:38;;;;;;;4.22;3.70;;;24.50;69.70;;;;;;6236344;28;84012;-65
2023/12/28 13:06:41;;;;;;;4.05;3.70;;;24.50;69.80;;;;;;6237789;28;82670;-65
2023/12/28 13:09:43;;;;;;;3.78;3.42;;;24.50;69.80;;;;;;6236071;28;82891;-65
2023/12/28 13:12:45;;;;;;;3.78;3.47;;;24.50;69.80;;;;;;6236336;28;83556;-64
2023/12/28 13:15:47;;;;;;;4.00;3.65;;;24.50;69.80;;;;;;6231123;28;83404;-64
2023/12/28 13:18:49;;;;;;;3.85;3.55;;;24.50;69.80;;;;;;6236465;28;84109;-64
2023/12/28 13:21:52;;;;;;;3.80;3.40;;;24.40;69.80;;;;;;6235541;28;84981;-65
2023/12/28 13:24:54;;;;;;;4.05;3.65;;;24.50;69.80;;;;;;6221555;28;84144;-65
2023/12/28 13:27:56;;;;;;;3.70;3.40;;;24.50;69.80;;;;;;6234194;28;84007;-65
2023/12/28 13:30:58;;;;;;;3.78;3.47;;;24.50;69.90;;;;;;6235025;28;84091;-64
2023/12/28 13:34:00;;;;;;;3.60;3.30;;;24.50;69.90;;;;;;6235209;28;84014;-64
2023/12/28 13:37:04;;;;;;;4.63;3.83;;;24.40;69.90;;;;;;6235199;28;84044;-65
2023/12/28 13:40:08;;;;;;;4.03;3.63;;;24.50;69.90;;;;;;6234656;28;83990;-65
2023/12/28 13:43:10;;;;;;;4.05;3.65;;;24.50;69.90;;;;;;6236614;28;83148;-65
2023/12/28 13:46:12;;;;;;;3.60;3.30;;;24.50;70.00;;;;;;6233674;28;84109;-65
2023/12/28 13:49:14;;;;;;;3.60;3.30;;;24.50;69.90;;;;;;6234773;28;82903;-65
2023/12/28 13:52:17;;;;;;;3.90;3.50;;;24.50;69.90;;;;;;6234536;28;84787;-64
2023/12/28 13:55:19;;;;;;;4.03;3.63;;;24.50;69.80;;;;;;6234621;28;82824;-64
2023/12/28 13:58:21;;;;;;;3.70;3.40;;;24.40;69.80;;;;;;6235502;28;82997;-64
2023/12/28 14:01:23;;;;;;;4.03;3.63;;;24.50;69.80;;;;;;6234580;28;83348;-65
2023/12/28 14:04:25;;;;;;;3.40;3.10;;;24.50;69.80;;;;;;6235152;28;84207;-65
2023/12/28 14:07:29;;;;;;;3.50;3.20;;;24.50;69.80;;;;;;6234570;28;84033;-64
2023/12/28 14:10:31;;;;;;;3.72;3.40;;;24.50;69.80;;;;;;6234480;28;84104;-64
2023/12/28 14:13:35;;;;;;;3.75;3.35;;;24.50;69.80;;;;;;6235695;28;83650;-64
2023/12/28 14:16:37;;;;;;;4.32;3.53;;;24.50;69.80;;;;;;6234568;28;83953;-65
2023/12/28 14:19:39;;;;;;;3.65;3.20;;;24.50;69.80;;;;;;6234781;28;83963;-65
2023/12/28 14:22:43;;;;;;;3.63;3.33;;;24.50;69.80;;;;;;6234012;28;84981;-64
2023/12/28 14:25:51;;;;;;;3.67;3.35;;;24.50;69.70;;;;;;6233064;28;83191;-65
2023/12/28 14:28:53;;;;;;;3.60;3.30;;;24.50;69.70;;;;;;6232575;28;84340;-65
2023/12/28 14:31:56;;;;;;;3.95;3.42;;;24.50;69.80;;;;;;6230121;28;83921;-64
2023/12/28 14:34:58;;;;;;;3.97;3.65;;;24.50;69.70;;;;;;6235125;28;84019;-65
2023/12/28 14:38:01;;;;;;;3.35;3.05;;;24.50;69.80;;;;;;6224132;28;83946;-65
2023/12/28 14:41:04;;;;;;;3.67;3.38;;;24.50;69.80;;;;;;6233637;28;84176;-64
2023/12/28 14:44:06;;;;;;;3.75;3.28;;;24.40;69.70;;;;;;6234179;28;83377;-65
2023/12/28 14:47:08;;;;;;;3.60;3.30;;;24.40;69.70;;;;;;6233233;28;84167;-65
2023/12/28 14:50:10;;;;;;;3.40;3.10;;;24.50;69.70;;;;;;6234977;28;84101;-65
2023/12/28 14:53:13;;;;;;;3.90;3.50;;;24.40;69.60;;;;;;6233497;28;83781;-65
2023/12/28 14:56:15;;;;;;;3.60;3.30;;;24.40;69.60;;;;;;6233042;28;84330;-65
2023/12/28 14:59:17;;;;;;;3.35;3.05;;;24.50;69.80;;;;;;6234966;28;84258;-64
2023/12/28 15:02:19;;;;;;;3.50;3.20;;;24.40;69.60;;;;;;6234132;28;84242;-65
2023/12/28 15:05:21;;;;;;;3.58;3.25;;;24.50;69.70;;;;;;6232558;28;83994;-65
2023/12/28 15:08:25;;;;;;;4.43;3.58;;;24.50;69.60;;;;;;6233067;28;84100;-64
2023/12/28 15:11:29;;;;;;;3.78;3.47;;;24.40;69.60;;;;;;6234836;28;84087;-65
2023/12/28 15:14:31;;;;;;;3.50;3.20;;;24.50;69.70;;;;;;6234539;28;84246;-65
2023/12/28 15:17:34;;;;;;;3.40;3.10;;;24.50;69.60;;;;;;6233795;28;83609;-65
2023/12/28 15:20:36;;;;;;;4.70;3.90;;;24.50;69.70;;;;;;6230534;28;83994;-64
2023/12/28 15:23:40;;;;;;;3.40;3.10;;;24.40;69.50;;;;;;6232735;28;84880;-65
2023/12/28 15:26:43;;;;;;;3.55;3.20;;;24.50;69.60;;;;;;6222795;28;84330;-65
2023/12/28 15:29:45;;;;;;;3.38;3.08;;;24.50;69.60;;;;;;6233209;28;82893;-65
2023/12/28 15:32:47;;;;;;;3.40;3.10;;;24.50;69.50;;;;;;6233477;28;84127;-65
2023/12/28 15:35:49;;;;;;;3.50;3.20;;;24.50;69.50;;;;;;6231785;28;84061;-64
2023/12/28 15:38:52;;;;;;;3.72;3.38;;;24.50;69.40;;;;;;6232498;28;83998;-64
2023/12/28 15:41:54;;;;;;;3.50;3.08;;;24.50;69.50;;;;;;6227015;28;83943;-65
2023/12/28 15:44:56;;;;;;;3.70;3.40;;;24.50;69.60;;;;;;6225773;28;83327;-65
2023/12/28 15:47:58;;;;;;;3.58;3.28;;;24.50;69.60;;;;;;6226787;28;82767;-65
2023/12/28 15:51:01;;;;;;;3.65;3.35;;;24.50;69.50;;;;;;6232260;28;84324;-65